Lexington, Michigan
Current Conditions -  °F | °C
As of 1:00 PM on Monday 26 Jan 2015 (Local Time) from CYZR Reporting Station
Clear Clear  
Wind Chill:   Ceiling: Unl
Heat Index: 19°   Visibility: 9mi
Dew Point: 12°   Wind: 10mph
Humidity: 74%   Direction: 20°NNE
Pressure: 29.93"   Gusts: NA
Location:  43.27°N, 82.53°W
Report Text: CYZR 261800Z AUTO 02009KT 9SM CLR M07/M11 A2993 RMK SLP146
Loading
Personal Weather Stations






























Interactive Weather Map New forecast layout! Learn more

10-Day Weather Forecast

Advertisements
Track Severe Weather on mobile